Webcam Richtung Westen

Webcam27

Webcam Richtung Norden

Webcam36

Webcam Richtung Osten

Webcam09

Wetter(Würzburg):
160800Z AUTO 14002G04KT 37KM SCT150 OVC210 OVC240 14/09 Q1021
		
Mon 16.09.2019, 08:00 UTC

Sichtweite bis zu 37 km
Wind aus 140° mit 02kt, in Böen bis zu 04kt
einige Wolken (3-4 Achtel) bei 15000 Fuß
bedeckter Himmel (8 Achtel) bei 21000 Fuß
bedeckter Himmel (8 Achtel) bei 24000 Fuß
Temperatur: 14 °C
Taupunkt: 9 °C
QNH: 1021 hPa
                         Heute        Morgen
                         16.09        17.09
--------------------------------------------
Beginn der Dämmerung     04:24        04:26
Sonnenaufgang            04:57        04:58
Sonnenuntergang          17:34        17:32
Ende der Dämmerung       18:06        18:04

Alle Zeiten in UTC